Terminal Aerodrome Forecast
Issued by NWS Burlington, VT

Home | Current Version | Previous Version | Text Only | Print | Product List | Glossary On
Versions: 1 2 3 4 5 6 7 8 9 10 11 12 13 14
000
FTUS41 KBTV 030520
TAFBTV
TAF
KBTV 030520Z 0306/0406 18012KT P6SM BKN150
     FM031100 18012G20KT P6SM SCT060 BKN150
     FM031800 20014G25KT P6SM VCSH SCT040 BKN110
     FM032000 20012G23KT 6SM +SHRA BKN040 BKN100
     FM040100 22012KT P6SM VCSH BKN060=

USA.gov is the U.S. government's official web portal to all federal, state and local government web resources and services.